createdAt,value
2019-04-03T00:01:29.344Z,20.50
2019-04-03T00:03:05.841Z,17.63
2019-04-03T00:04:42.243Z,11.23
2019-04-03T00:06:31.078Z,26.47
2019-04-03T00:08:07.320Z,20.13
2019-04-03T00:09:44.782Z,26.50
2019-04-03T00:11:21.109Z,25.93
2019-04-03T00:12:57.361Z,21.70
2019-04-03T00:14:33.521Z,22.10
2019-04-03T00:16:09.757Z,20.63
2019-04-03T00:17:46.274Z,22.30
2019-04-03T00:19:22.636Z,21.17
2019-04-03T00:20:58.871Z,18.93
2019-04-03T00:22:35.513Z,26.23
2019-04-03T00:24:11.862Z,24.87
2019-04-03T00:25:48.253Z,17.70
2019-04-03T00:27:24.429Z,21.97
2019-04-03T00:29:00.814Z,23.80
2019-04-03T00:30:37.259Z,17.80
2019-04-03T00:32:13.670Z,19.80
2019-04-03T00:33:49.889Z,21.43
2019-04-03T00:35:26.184Z,18.53
2019-04-03T00:37:02.262Z,28.77
2019-04-03T00:38:38.523Z,30.03
2019-04-03T00:40:15.331Z,31.83
2019-04-03T00:41:52.947Z,23.63
2019-04-03T00:43:29.414Z,32.80
2019-04-03T00:45:07.421Z,24.60
2019-04-03T00:46:43.679Z,18.07
2019-04-03T00:48:20.006Z,11.27
2019-04-03T00:49:57.079Z,20.73
2019-04-03T00:51:33.786Z,21.83
2019-04-03T00:53:09.988Z,21.47
2019-04-03T00:54:47.366Z,14.20
2019-04-03T00:56:24.799Z,16.70
2019-04-03T00:58:01.552Z,22.67
2019-04-03T00:59:37.948Z,23.87
2019-04-03T01:01:14.327Z,25.83
2019-04-03T01:02:50.492Z,24.13
2019-04-03T01:04:28.216Z,25.90
2019-04-03T01:06:05.102Z,22.37
2019-04-03T01:07:41.329Z,24.37
2019-04-03T01:09:17.674Z,25.90
2019-04-03T01:10:53.922Z,25.10
2019-04-03T01:12:31.266Z,26.67
2019-04-03T01:14:07.555Z,28.03
2019-04-03T01:15:43.789Z,32.47
2019-04-03T01:17:20.110Z,24.13
2019-04-03T01:18:56.483Z,23.63
2019-04-03T01:20:32.639Z,21.20
2019-04-03T01:22:08.874Z,26.13
2019-04-03T01:23:45.106Z,29.50
2019-04-03T01:25:21.374Z,26.90
2019-04-03T01:26:57.777Z,17.00
2019-04-03T01:28:35.265Z,20.10
2019-04-03T01:30:12.122Z,23.97
2019-04-03T01:31:49.722Z,21.00
2019-04-03T01:33:26.034Z,20.03
2019-04-03T01:35:02.197Z,27.17
2019-04-03T01:36:38.388Z,21.20
2019-04-03T01:38:14.617Z,30.70
2019-04-03T01:39:51.296Z,24.60
2019-04-03T01:41:27.657Z,15.63
2019-04-03T01:43:05.078Z,25.80
2019-04-03T01:44:41.272Z,20.10
2019-04-03T01:46:17.509Z,29.80
2019-04-03T01:47:57.431Z,23.30
2019-04-03T01:49:32.806Z,34.60
2019-04-03T01:51:09.002Z,27.27
2019-04-03T01:52:45.361Z,18.17
2019-04-03T01:54:21.626Z,25.23
2019-04-03T01:55:57.894Z,26.53
2019-04-03T01:57:36.655Z,22.30
2019-04-03T01:59:13.285Z,23.73
2019-04-03T02:00:49.523Z,26.63
2019-04-03T02:02:25.846Z,21.37
2019-04-03T02:04:02.151Z,26.60
2019-04-03T02:05:38.465Z,27.37
2019-04-03T02:07:15.154Z,27.70
2019-04-03T02:08:51.450Z,27.23
2019-04-03T02:10:29.223Z,26.47
2019-04-03T02:12:05.631Z,26.90
2019-04-03T02:13:41.973Z,27.93
2019-04-03T02:15:21.209Z,25.73
2019-04-03T02:16:56.411Z,25.67
2019-04-03T02:18:32.813Z,28.00
2019-04-03T02:20:09.414Z,24.47
2019-04-03T02:21:45.679Z,29.83
2019-04-03T02:23:21.971Z,27.33
2019-04-03T02:24:58.258Z,34.13
2019-04-03T02:26:35.995Z,26.27
2019-04-03T02:28:12.219Z,20.27
2019-04-03T02:29:48.385Z,29.03
2019-04-03T02:31:24.718Z,24.67
2019-04-03T02:33:01.099Z,22.50
2019-04-03T02:34:37.482Z,15.20
2019-04-03T02:36:13.902Z,24.30
2019-04-03T02:37:50.841Z,17.77
2019-04-03T02:39:27.720Z,19.20
2019-04-03T02:41:05.205Z,21.47
2019-04-03T02:42:42.464Z,14.70
2019-04-03T02:44:20.043Z,19.83
2019-04-03T02:45:57.279Z,18.73
2019-04-03T02:47:34.712Z,24.90
2019-04-03T02:49:11.189Z,24.93
2019-04-03T02:50:48.470Z,24.63
2019-04-03T02:52:26.600Z,27.70
2019-04-03T02:54:03.232Z,30.47
2019-04-03T02:55:40.991Z,22.87
2019-04-03T02:57:18.175Z,20.07
2019-04-03T02:58:55.164Z,23.87
2019-04-03T03:00:33.606Z,24.90
2019-04-03T03:02:12.504Z,26.10
2019-04-03T03:03:49.808Z,22.93
2019-04-03T03:05:28.166Z,23.50
2019-04-03T03:07:05.825Z,24.80
2019-04-03T03:08:43.219Z,16.00
2019-04-03T03:10:20.361Z,29.50
2019-04-03T03:11:57.426Z,32.40
2019-04-03T03:13:35.563Z,11.67
2019-04-03T03:15:12.742Z,24.57
2019-04-03T03:16:50.843Z,18.47
2019-04-03T03:18:28.353Z,25.33
2019-04-03T03:20:08.101Z,20.87
2019-04-03T03:21:45.645Z,21.63
2019-04-03T03:23:24.083Z,24.23
2019-04-03T03:25:01.325Z,19.27
2019-04-03T03:26:38.817Z,26.17
2019-04-03T03:28:17.198Z,20.80
2019-04-03T03:29:53.737Z,24.33
2019-04-03T03:31:59.627Z,23.30
2019-04-03T03:33:28.772Z,24.87
2019-04-03T03:34:57.116Z,30.27
2019-04-03T03:36:28.358Z,22.77
2019-04-03T03:38:07.091Z,22.13
2019-04-03T03:39:44.542Z,21.70
2019-04-03T03:41:22.906Z,22.23
2019-04-03T03:43:03.767Z,21.07
2019-04-03T03:44:43.347Z,22.33
2019-04-03T03:46:17.155Z,21.30
2019-04-03T03:47:54.860Z,15.70
2019-04-03T03:49:31.888Z,16.50
2019-04-03T03:51:08.803Z,22.23
2019-04-03T03:52:46.659Z,23.43
2019-04-03T03:54:24.060Z,25.83
2019-04-03T03:56:02.192Z,14.53
2019-04-03T03:57:41.855Z,19.57
2019-04-03T03:59:18.969Z,14.43
2019-04-03T04:00:59.388Z,29.70
2019-04-03T04:02:36.745Z,22.87
2019-04-03T04:04:15.269Z,24.03
2019-04-03T04:05:54.687Z,20.00
2019-04-03T04:07:30.787Z,26.53
2019-04-03T04:09:09.320Z,27.13
2019-04-03T04:10:45.981Z,17.57
2019-04-03T04:12:22.440Z,20.50
2019-04-03T04:13:58.840Z,25.30
2019-04-03T04:15:36.170Z,29.50
2019-04-03T04:17:17.093Z,27.27
2019-04-03T04:18:55.935Z,23.20
2019-04-03T04:20:30.125Z,22.60
2019-04-03T04:22:06.679Z,24.10
2019-04-03T04:23:43.290Z,28.03
2019-04-03T04:25:19.604Z,15.03
2019-04-03T04:26:56.577Z,24.50
2019-04-03T04:28:32.966Z,17.43
2019-04-03T04:30:11.971Z,20.30
2019-04-03T04:31:47.967Z,23.57
2019-04-03T04:33:24.280Z,23.57
2019-04-03T04:35:01.639Z,21.93
2019-04-03T04:36:37.873Z,19.33
2019-04-03T04:38:14.169Z,21.03
2019-04-03T04:39:50.499Z,24.47
2019-04-03T04:41:28.150Z,18.30
2019-04-03T04:43:07.442Z,19.03
2019-04-03T04:44:42.513Z,19.53
2019-04-03T04:46:18.736Z,21.93
2019-04-03T04:47:54.904Z,22.40
2019-04-03T04:49:31.076Z,21.30
2019-04-03T04:51:07.343Z,15.47
2019-04-03T04:52:43.538Z,21.73
2019-04-03T04:54:19.787Z,21.17
2019-04-03T04:55:55.978Z,24.27
2019-04-03T04:57:32.376Z,18.50
2019-04-03T04:59:08.527Z,21.03
2019-04-03T05:00:47.047Z,21.93
2019-04-03T05:02:22.846Z,25.47
2019-04-03T05:03:59.370Z,26.17
2019-04-03T05:05:35.937Z,22.10
2019-04-03T05:07:12.159Z,20.57
2019-04-03T05:08:48.423Z,20.30
2019-04-03T05:10:24.584Z,27.40
2019-04-03T05:12:00.898Z,27.77
2019-04-03T05:13:37.218Z,28.40
2019-04-03T05:15:13.524Z,24.47
2019-04-03T05:16:50.167Z,23.97
2019-04-03T05:18:28.519Z,18.23
2019-04-03T05:20:05.309Z,20.20
2019-04-03T05:21:42.770Z,24.27
2019-04-03T05:23:19.063Z,31.53
2019-04-03T05:24:55.393Z,24.13
2019-04-03T05:26:32.266Z,19.70
2019-04-03T05:28:09.012Z,25.43
2019-04-03T05:29:45.236Z,24.00
2019-04-03T05:31:21.465Z,20.57
2019-04-03T05:32:57.991Z,24.17
2019-04-03T05:34:34.214Z,23.40
2019-04-03T05:36:10.508Z,20.23
2019-04-03T05:37:46.858Z,24.17
2019-04-03T05:39:23.938Z,24.73
2019-04-03T05:41:00.634Z,21.37
2019-04-03T05:42:36.828Z,18.60
2019-04-03T05:44:13.276Z,22.10
2019-04-03T05:45:49.408Z,21.10
2019-04-03T05:47:38.924Z,17.93
2019-04-03T05:49:18.497Z,19.97
2019-04-03T05:50:54.195Z,21.13
2019-04-03T05:52:30.951Z,16.27
2019-04-03T05:54:07.753Z,18.60
2019-04-03T05:55:45.049Z,24.20
2019-04-03T05:57:21.530Z,28.57
2019-04-03T05:59:01.393Z,32.47
2019-04-03T06:00:37.706Z,21.03
2019-04-03T06:02:16.586Z,24.83
2019-04-03T06:03:51.405Z,25.60
2019-04-03T06:05:27.878Z,21.60
2019-04-03T06:07:04.109Z,22.87
2019-04-03T06:08:40.359Z,25.53
2019-04-03T06:10:16.587Z,22.13
2019-04-03T06:11:52.981Z,20.87
2019-04-03T06:13:29.139Z,19.93
2019-04-03T06:15:09.817Z,17.40
2019-04-03T06:16:46.134Z,20.17
2019-04-03T06:18:25.707Z,30.77
2019-04-03T06:20:01.561Z,25.20
2019-04-03T06:21:37.819Z,20.47
2019-04-03T06:23:13.977Z,27.80
2019-04-03T06:24:50.139Z,15.60
2019-04-03T06:26:26.383Z,22.73
2019-04-03T06:28:02.640Z,23.53
2019-04-03T06:29:39.250Z,13.70
2019-04-03T06:31:15.611Z,19.73
2019-04-03T06:32:54.384Z,25.83
2019-04-03T06:34:30.889Z,24.50
2019-04-03T06:36:08.588Z,23.03
2019-04-03T06:37:44.940Z,19.07
2019-04-03T06:39:22.878Z,17.83
2019-04-03T06:41:00.165Z,23.30
2019-04-03T06:42:36.504Z,29.10
2019-04-03T06:44:12.447Z,21.47
2019-04-03T06:45:48.714Z,23.83
2019-04-03T06:47:25.017Z,22.07
2019-04-03T06:49:01.499Z,25.67
2019-04-03T06:50:38.394Z,21.40
2019-04-03T06:52:14.676Z,23.40
2019-04-03T06:53:50.757Z,17.00
2019-04-03T06:55:27.098Z,24.53
2019-04-03T06:57:03.248Z,20.53
2019-04-03T06:58:40.242Z,20.23
2019-04-03T07:00:16.748Z,14.93
2019-04-03T07:01:53.603Z,18.53
2019-04-03T07:03:29.980Z,16.87
2019-04-03T07:05:09.673Z,21.93
2019-04-03T07:06:45.711Z,23.70
2019-04-03T07:08:30.156Z,31.93
2019-04-03T07:10:00.298Z,38.87
2019-04-03T07:11:36.774Z,29.57
2019-04-03T07:13:15.263Z,25.50
2019-04-03T07:14:51.899Z,26.07
2019-04-03T07:16:29.191Z,38.20
2019-04-03T07:18:06.733Z,34.97
2019-04-03T07:19:43.261Z,37.80
2019-04-03T07:21:22.131Z,28.50
2019-04-03T07:22:59.063Z,30.87
2019-04-03T07:24:35.491Z,23.53
2019-04-03T07:26:11.926Z,34.63
2019-04-03T07:27:48.290Z,30.70
2019-04-03T07:29:26.077Z,39.07
2019-04-03T07:31:02.617Z,14.87
2019-04-03T07:32:38.983Z,27.20
2019-04-03T07:34:15.344Z,35.37
2019-04-03T07:35:51.598Z,23.60
2019-04-03T07:37:27.865Z,25.10
2019-04-03T07:39:05.774Z,25.33
2019-04-03T07:40:42.079Z,23.57
2019-04-03T07:42:18.584Z,22.07
2019-04-03T07:43:54.447Z,25.73
2019-04-03T07:45:32.771Z,24.10
2019-04-03T07:47:08.820Z,25.70
2019-04-03T07:48:46.852Z,15.80
2019-04-03T07:50:23.393Z,23.17
2019-04-03T07:51:59.643Z,28.17
2019-04-03T07:53:36.061Z,17.00
2019-04-03T07:55:12.420Z,19.93
2019-04-03T07:56:48.579Z,22.43
2019-04-03T07:58:25.709Z,20.67
2019-04-03T08:00:02.195Z,20.30
2019-04-03T08:01:38.799Z,26.37
2019-04-03T08:03:16.475Z,19.73
2019-04-03T08:04:55.705Z,23.47
2019-04-03T08:06:30.811Z,23.80
2019-04-03T08:08:07.137Z,21.77
2019-04-03T08:09:43.247Z,21.73
2019-04-03T08:11:19.552Z,23.63
2019-04-03T08:12:56.361Z,22.20
2019-04-03T08:14:32.557Z,22.63
2019-04-03T08:16:08.964Z,19.40
2019-04-03T08:17:45.194Z,14.17
2019-04-03T08:19:23.191Z,23.57
2019-04-03T08:21:01.803Z,23.17
2019-04-03T08:22:38.538Z,19.00
2019-04-03T08:24:14.878Z,22.83
2019-04-03T08:25:53.994Z,19.93
2019-04-03T08:27:30.291Z,25.23
2019-04-03T08:29:06.901Z,23.33
2019-04-03T08:30:43.526Z,20.97
2019-04-03T08:32:19.838Z,19.27
2019-04-03T08:33:57.121Z,20.97
2019-04-03T08:35:35.479Z,20.60
2019-04-03T08:37:11.926Z,18.93
2019-04-03T08:38:48.116Z,23.90
2019-04-03T08:40:24.420Z,24.30
2019-04-03T08:42:00.650Z,19.00
2019-04-03T08:43:37.045Z,21.10
2019-04-03T08:45:15.058Z,23.07
2019-04-03T08:46:51.324Z,19.97
2019-04-03T08:48:27.496Z,25.53
2019-04-03T08:50:05.102Z,19.50
2019-04-03T08:51:41.403Z,26.00
2019-04-03T08:53:17.855Z,23.53
2019-04-03T08:54:54.146Z,18.87
2019-04-03T08:56:30.602Z,24.63
2019-04-03T08:58:08.015Z,25.13
2019-04-03T08:59:44.324Z,16.77
2019-04-03T09:01:20.702Z,21.97
2019-04-03T09:02:57.045Z,29.90
2019-04-03T09:04:33.280Z,24.53
2019-04-03T09:06:09.545Z,26.97
2019-04-03T09:07:45.882Z,24.50
2019-04-03T09:09:22.199Z,21.50
2019-04-03T09:11:10.809Z,20.67
2019-04-03T09:12:47.132Z,16.73
2019-04-03T09:14:25.363Z,24.90
2019-04-03T09:16:01.688Z,21.63
2019-04-03T09:17:38.396Z,18.07
2019-04-03T09:19:16.813Z,20.27
2019-04-03T09:20:52.640Z,20.70
2019-04-03T09:22:28.772Z,23.97
2019-04-03T09:24:05.176Z,14.57
2019-04-03T09:25:41.591Z,20.83
2019-04-03T09:27:17.859Z,24.37
2019-04-03T09:28:53.836Z,23.27
2019-04-03T09:30:30.478Z,21.10
2019-04-03T09:32:06.919Z,29.57
2019-04-03T09:33:43.157Z,18.83
2019-04-03T09:35:19.484Z,27.23
2019-04-03T09:36:55.644Z,18.10
2019-04-03T09:38:31.937Z,23.60
2019-04-03T09:40:08.724Z,21.83
2019-04-03T09:41:44.962Z,24.47
2019-04-03T09:43:22.239Z,21.97
2019-04-03T09:44:59.311Z,15.27
2019-04-03T09:46:35.632Z,26.23
2019-04-03T09:48:12.786Z,22.30
2019-04-03T09:49:50.923Z,21.43
2019-04-03T09:51:27.159Z,23.20
2019-04-03T09:53:03.102Z,26.30
2019-04-03T09:54:39.404Z,16.63
2019-04-03T09:56:15.547Z,19.20
2019-04-03T09:57:53.416Z,19.53
2019-04-03T09:59:29.681Z,24.70
2019-04-03T10:01:06.205Z,18.50
2019-04-03T10:02:43.795Z,19.23
2019-04-03T10:04:21.394Z,24.43
2019-04-03T10:05:59.805Z,16.87
2019-04-03T10:07:36.997Z,20.63
2019-04-03T10:09:13.426Z,19.13
2019-04-03T10:10:49.665Z,13.20
2019-04-03T10:12:25.839Z,21.00
2019-04-03T10:14:04.378Z,19.90
2019-04-03T10:15:40.620Z,23.10
2019-04-03T10:17:16.796Z,22.13
2019-04-03T10:18:53.125Z,26.30
2019-04-03T10:20:29.680Z,17.20
2019-04-03T10:22:06.175Z,20.43
2019-04-03T10:23:42.485Z,25.30
2019-04-03T10:25:19.376Z,24.30
2019-04-03T10:26:56.692Z,20.57
2019-04-03T10:28:33.251Z,21.27
2019-04-03T10:30:14.284Z,26.20
2019-04-03T10:31:50.684Z,16.13
2019-04-03T10:33:26.915Z,11.27
2019-04-03T10:35:03.407Z,27.63
2019-04-03T10:36:42.044Z,20.20
2019-04-03T10:38:18.222Z,21.47
2019-04-03T10:39:55.375Z,22.07
2019-04-03T10:41:31.638Z,15.23
2019-04-03T10:43:08.129Z,16.23
2019-04-03T10:44:44.564Z,20.87
2019-04-03T10:46:21.105Z,18.73
2019-04-03T10:47:57.345Z,28.17
2019-04-03T10:49:33.802Z,23.30
2019-04-03T10:51:10.264Z,19.73
2019-04-03T10:52:49.078Z,21.90
2019-04-03T10:54:25.455Z,23.20
2019-04-03T10:56:02.162Z,18.43
2019-04-03T10:57:38.796Z,19.27
2019-04-03T10:59:17.955Z,30.30
2019-04-03T11:00:53.217Z,15.87
2019-04-03T11:02:29.811Z,22.57
2019-04-03T11:04:07.697Z,25.47
2019-04-03T11:05:44.016Z,24.07
2019-04-03T11:07:21.442Z,18.80
2019-04-03T11:08:57.895Z,21.20
2019-04-03T11:10:34.284Z,22.40
2019-04-03T11:12:10.707Z,20.70
2019-04-03T11:13:46.952Z,34.13
2019-04-03T11:15:23.549Z,16.37
2019-04-03T11:16:59.831Z,26.47
2019-04-03T11:18:36.075Z,22.20
2019-04-03T11:20:15.292Z,22.57
2019-04-03T11:21:51.847Z,28.40
2019-04-03T11:25:13.874Z,17.67
2019-04-03T11:26:51.765Z,23.70
2019-04-03T11:28:27.304Z,28.73
2019-04-03T11:30:05.093Z,24.80
2019-04-03T11:30:54.598Z,16.63
2019-04-03T11:31:42.838Z,21.00
2019-04-03T11:33:19.602Z,14.17
2019-04-03T11:34:55.913Z,26.67
2019-04-03T11:36:32.628Z,28.90
2019-04-03T11:38:14.136Z,26.07
2019-04-03T11:39:47.045Z,24.03
2019-04-03T11:41:24.435Z,23.83
2019-04-03T11:43:00.941Z,23.23
2019-04-03T11:44:37.244Z,23.57
2019-04-03T11:46:13.874Z,19.37
2019-04-03T11:47:50.343Z,18.73
2019-04-03T11:49:26.797Z,21.20
2019-04-03T11:51:03.063Z,19.00
2019-04-03T11:52:39.372Z,15.70
2019-04-03T11:54:15.636Z,18.20
2019-04-03T11:55:51.987Z,17.63
2019-04-03T11:57:28.618Z,18.57
2019-04-03T11:59:05.441Z,18.87
2019-04-03T12:00:46.422Z,21.60
2019-04-03T12:02:22.931Z,20.33
2019-04-03T12:03:59.429Z,26.97
2019-04-03T12:05:37.220Z,22.53
2019-04-03T12:07:13.594Z,18.10
2019-04-03T12:08:51.315Z,18.47
2019-04-03T12:10:27.628Z,27.17
2019-04-03T12:12:05.524Z,29.03
2019-04-03T12:13:44.413Z,20.30
2019-04-03T12:15:21.697Z,17.03
2019-04-03T12:16:58.468Z,22.07
2019-04-03T12:18:35.050Z,22.73
2019-04-03T12:20:15.120Z,31.07
2019-04-03T12:21:51.273Z,29.77
2019-04-03T12:23:32.336Z,25.10
2019-04-03T12:25:08.829Z,21.50
2019-04-03T12:26:45.192Z,27.63
2019-04-03T12:28:21.790Z,21.63
2019-04-03T12:29:58.471Z,24.73
2019-04-03T12:31:36.136Z,22.47
2019-04-03T12:33:12.336Z,24.73
2019-04-03T12:34:49.270Z,21.30
2019-04-03T12:36:27.534Z,23.00
2019-04-03T12:38:04.663Z,24.83
2019-04-03T12:39:41.166Z,19.73
2019-04-03T12:41:18.825Z,22.23
2019-04-03T12:42:55.431Z,22.50
2019-04-03T12:44:31.995Z,21.77
2019-04-03T12:46:08.393Z,22.33
2019-04-03T12:47:45.737Z,27.87
2019-04-03T12:49:22.836Z,18.73
2019-04-03T12:51:00.297Z,20.67
2019-04-03T12:52:36.800Z,19.80
2019-04-03T12:54:14.097Z,21.53
2019-04-03T12:55:50.486Z,22.77
2019-04-03T12:57:26.824Z,23.63
2019-04-03T12:59:03.274Z,23.53
2019-04-03T13:00:39.720Z,22.20
2019-04-03T13:02:16.031Z,19.00
2019-04-03T13:03:52.889Z,20.23
2019-04-03T13:05:30.659Z,18.53
2019-04-03T13:07:07.406Z,27.67
2019-04-03T13:08:43.867Z,23.90
2019-04-03T13:10:21.276Z,21.53
2019-04-03T13:11:57.491Z,23.73
2019-04-03T13:13:33.791Z,26.47
2019-04-03T13:15:12.518Z,28.63
2019-04-03T13:16:48.636Z,39.40
2019-04-03T13:18:25.299Z,28.07
2019-04-03T13:20:05.612Z,21.97
2019-04-03T13:21:40.346Z,23.40
2019-04-03T13:23:17.056Z,20.03
2019-04-03T13:24:53.291Z,21.87
2019-04-03T13:26:29.655Z,25.80
2019-04-03T13:28:06.203Z,20.03
2019-04-03T13:29:43.782Z,24.00
2019-04-03T13:31:20.173Z,27.53
2019-04-03T13:32:59.756Z,21.83
2019-04-03T13:34:34.457Z,14.73
2019-04-03T13:36:10.925Z,20.50
2019-04-03T13:37:47.450Z,16.73
2019-04-03T13:39:24.132Z,21.47
2019-04-03T13:41:00.884Z,21.93
2019-04-03T13:42:37.537Z,27.07
2019-04-03T13:44:13.633Z,22.63
2019-04-03T13:45:50.092Z,41.60
2019-04-03T13:47:26.506Z,19.57
2019-04-03T13:49:02.850Z,23.97
2019-04-03T13:50:39.155Z,17.77
2019-04-03T13:52:15.428Z,23.97
2019-04-03T13:53:53.390Z,29.13
2019-04-03T13:55:33.813Z,13.13
2019-04-03T13:57:08.057Z,22.77
2019-04-03T13:58:44.887Z,20.00
2019-04-03T14:00:23.467Z,28.13
2019-04-03T14:01:59.942Z,25.00
2019-04-03T14:03:36.407Z,22.57
2019-04-03T14:05:14.038Z,21.50
2019-04-03T14:06:50.737Z,26.50
2019-04-03T14:08:26.948Z,23.20
2019-04-03T14:10:03.556Z,29.13
2019-04-03T14:11:40.235Z,22.63
2019-04-03T14:13:16.835Z,24.40
2019-04-03T14:14:53.104Z,23.90
2019-04-03T14:16:30.090Z,23.60
2019-04-03T14:18:07.793Z,27.67
2019-04-03T14:19:48.448Z,26.03
2019-04-03T14:21:22.552Z,24.13
2019-04-03T14:22:58.700Z,28.20
2019-04-03T14:24:41.848Z,28.97
2019-04-03T14:26:14.578Z,21.87
2019-04-03T14:27:51.173Z,18.53
2019-04-03T14:29:29.480Z,39.73
2019-04-03T14:31:05.878Z,25.13
2019-04-03T14:32:45.002Z,25.83
2019-04-03T14:34:20.233Z,20.53
2019-04-03T14:35:56.750Z,17.80
2019-04-03T14:37:33.198Z,28.87
2019-04-03T14:39:09.746Z,23.17
2019-04-03T14:40:46.110Z,18.83
2019-04-03T14:42:25.654Z,24.20
2019-04-03T14:44:02.011Z,22.17
2019-04-03T14:45:39.610Z,28.80
2019-04-03T14:47:15.979Z,26.53
2019-04-03T14:48:52.174Z,20.07
2019-04-03T14:50:28.407Z,22.80
2019-04-03T14:52:06.344Z,22.80
2019-04-03T14:53:42.565Z,19.90
2019-04-03T14:55:21.278Z,25.00
2019-04-03T14:56:58.167Z,28.23
2019-04-03T14:58:34.338Z,28.50
2019-04-03T15:00:26.080Z,24.40
2019-04-03T15:01:53.084Z,24.90
2019-04-03T15:03:29.437Z,22.43
2019-04-03T15:05:08.578Z,30.80
2019-04-03T15:06:46.390Z,21.43
2019-04-03T15:08:23.923Z,29.73
2019-04-03T15:10:02.696Z,26.63
2019-04-03T15:11:39.625Z,30.70
2019-04-03T15:13:15.771Z,22.80
2019-04-03T15:14:54.465Z,31.67
2019-04-03T15:16:32.217Z,26.37
2019-04-03T15:18:10.154Z,26.70
2019-04-03T15:19:46.651Z,35.67
2019-04-03T15:21:24.387Z,29.53
2019-04-03T15:23:03.904Z,25.53
2019-04-03T15:24:38.620Z,32.40
2019-04-03T15:26:14.788Z,31.60
2019-04-03T15:27:51.043Z,32.73
2019-04-03T15:29:27.353Z,26.90
2019-04-03T15:31:04.692Z,32.23
2019-04-03T15:32:40.967Z,33.13
2019-04-03T15:34:17.232Z,32.53
2019-04-03T15:35:53.617Z,30.60
2019-04-03T15:37:29.746Z,24.43
2019-04-03T15:39:10.576Z,30.67
2019-04-03T15:40:47.120Z,28.43
2019-04-03T15:42:23.417Z,28.90
2019-04-03T15:44:00.466Z,28.23
2019-04-03T15:45:36.970Z,25.27
2019-04-03T15:47:18.798Z,32.23
2019-04-03T15:48:53.593Z,33.27
2019-04-03T15:50:33.301Z,33.93
2019-04-03T15:52:11.060Z,28.87
2019-04-03T15:53:46.949Z,27.47
2019-04-03T15:55:25.415Z,36.20
2019-04-03T15:57:02.108Z,21.83
2019-04-03T15:58:38.543Z,31.23
2019-04-03T16:00:17.909Z,31.63
2019-04-03T16:01:54.892Z,35.40
2019-04-03T16:03:31.625Z,31.47
2019-04-03T16:05:08.534Z,28.27
2019-04-03T16:06:45.055Z,31.30
2019-04-03T16:08:21.621Z,39.23
2019-04-03T16:09:57.945Z,31.53
2019-04-03T16:11:34.253Z,41.97
2019-04-03T16:13:12.089Z,37.90
2019-04-03T16:14:50.800Z,37.63
2019-04-03T16:16:28.432Z,35.83
2019-04-03T16:18:07.112Z,40.07
2019-04-03T16:19:44.534Z,34.37
2019-04-03T16:21:40.501Z,25.23
2019-04-03T16:23:17.258Z,30.50
2019-04-03T16:24:54.689Z,35.70
2019-04-03T16:26:31.497Z,36.63
2019-04-03T16:28:07.793Z,47.43
2019-04-03T16:29:43.957Z,29.87
2019-04-03T16:31:21.549Z,44.53
2019-04-03T16:33:02.347Z,21.00
2019-04-03T16:34:35.960Z,39.27
2019-04-03T16:36:12.304Z,38.93
2019-04-03T16:37:50.420Z,45.43
2019-04-03T16:39:26.283Z,26.60
2019-04-03T16:41:03.528Z,39.10
2019-04-03T16:42:39.972Z,39.43
2019-04-03T16:44:16.543Z,26.63
2019-04-03T16:45:52.828Z,24.20
2019-04-03T16:47:30.120Z,29.37
2019-04-03T16:49:08.869Z,26.60
2019-04-03T16:50:45.253Z,36.03
2019-04-03T16:52:22.136Z,50.27
2019-04-03T16:54:00.155Z,70.17
2019-04-03T16:55:36.362Z,41.87
2019-04-03T16:57:12.758Z,43.33
2019-04-03T16:58:48.547Z,38.33
2019-04-03T17:00:25.087Z,38.90
2019-04-03T17:02:01.882Z,43.83
2019-04-03T17:03:38.713Z,32.60
2019-04-03T17:05:15.629Z,31.77
2019-04-03T17:06:52.208Z,38.70
2019-04-03T17:08:28.930Z,31.70
2019-04-03T17:10:09.473Z,37.43
2019-04-03T17:11:48.653Z,37.83
2019-04-03T17:13:23.828Z,40.00
2019-04-03T17:15:01.863Z,46.47
2019-04-03T17:16:38.371Z,32.73
2019-04-03T17:18:16.356Z,41.83
2019-04-03T17:19:52.715Z,41.40
2019-04-03T17:21:36.170Z,24.20
2019-04-03T17:23:06.984Z,34.03
2019-04-03T17:24:48.059Z,44.13
2019-04-03T17:26:22.631Z,27.37
2019-04-03T17:27:59.781Z,27.77
2019-04-03T17:29:36.661Z,39.30
2019-04-03T17:31:13.015Z,34.07
2019-04-03T17:32:49.432Z,45.63
2019-04-03T17:34:25.771Z,60.77
2019-04-03T17:36:02.037Z,65.93
2019-04-03T17:37:38.477Z,55.63
2019-04-03T17:39:14.892Z,50.53
2019-04-03T17:40:52.184Z,75.40
2019-04-03T17:42:28.531Z,52.57
2019-04-03T17:44:05.197Z,54.40
2019-04-03T17:45:41.699Z,51.10
2019-04-03T17:47:19.421Z,34.43
2019-04-03T17:48:56.017Z,44.53
2019-04-03T17:50:32.266Z,40.67
2019-04-03T17:52:08.552Z,47.40
2019-04-03T17:53:44.732Z,33.57
2019-04-03T17:55:20.970Z,55.87
2019-04-03T17:56:57.335Z,32.83
2019-04-03T17:58:33.592Z,60.87
2019-04-03T18:00:15.551Z,47.17
2019-04-03T18:01:52.471Z,45.40
2019-04-03T18:03:29.178Z,46.50
2019-04-03T18:05:07.701Z,48.47
2019-04-03T18:06:46.481Z,32.63
2019-04-03T18:08:23.093Z,34.00
2019-04-03T18:09:59.371Z,37.10
2019-04-03T18:11:42.617Z,43.57
2019-04-03T18:13:18.085Z,40.03
2019-04-03T18:14:55.717Z,41.50
2019-04-03T18:16:32.456Z,46.13
2019-04-03T18:18:08.862Z,38.90
2019-04-03T18:19:45.072Z,46.63
2019-04-03T18:21:23.129Z,38.73
2019-04-03T18:22:59.264Z,44.63
2019-04-03T18:24:35.598Z,25.20
2019-04-03T18:26:11.865Z,44.37
2019-04-03T18:27:48.273Z,38.73
2019-04-03T18:29:24.621Z,45.93
2019-04-03T18:31:01.159Z,40.73
2019-04-03T18:32:37.410Z,39.17
2019-04-03T18:34:13.649Z,28.43
2019-04-03T18:35:49.860Z,52.57
2019-04-03T18:37:26.157Z,45.63
2019-04-03T18:39:04.336Z,32.13
2019-04-03T18:40:40.614Z,44.37
2019-04-03T18:42:18.623Z,36.20
2019-04-03T18:43:55.124Z,31.63
2019-04-03T18:45:31.505Z,47.40
2019-04-03T18:47:07.924Z,49.93
2019-04-03T18:48:53.159Z,36.20
2019-04-03T18:50:22.706Z,34.23
2019-04-03T18:52:00.183Z,40.87
2019-04-03T18:53:36.620Z,43.80
2019-04-03T18:55:14.648Z,28.73
2019-04-03T18:56:50.893Z,38.40
2019-04-03T18:58:27.182Z,38.07
2019-04-03T19:00:04.635Z,39.57
2019-04-03T19:01:40.916Z,41.80
2019-04-03T19:03:17.178Z,44.13
2019-04-03T19:05:01.870Z,43.37
2019-04-03T19:06:32.490Z,30.57
2019-04-03T19:08:13.281Z,44.77
2019-04-03T19:09:47.120Z,31.00
2019-04-03T19:11:23.825Z,32.50
2019-04-03T19:13:01.246Z,38.53
2019-04-03T19:14:37.573Z,33.07
2019-04-03T19:16:19.547Z,45.70
2019-04-03T19:17:59.881Z,33.43
2019-04-03T19:19:29.740Z,42.37
2019-04-03T19:21:08.990Z,34.13
2019-04-03T19:22:44.103Z,32.07
2019-04-03T19:24:20.522Z,42.40
2019-04-03T19:25:58.060Z,41.67
2019-04-03T19:27:34.666Z,34.07
2019-04-03T19:29:10.991Z,33.90
2019-04-03T19:30:47.497Z,32.93
2019-04-03T19:32:23.726Z,42.33
2019-04-03T19:33:59.871Z,30.70
2019-04-03T19:35:36.664Z,38.07
2019-04-03T19:37:13.170Z,35.03
2019-04-03T19:38:49.418Z,33.47
2019-04-03T19:40:25.773Z,31.57
2019-04-03T19:42:02.009Z,42.97
2019-04-03T19:43:38.258Z,33.03
2019-04-03T19:45:15.890Z,36.57
2019-04-03T19:46:53.906Z,35.27
2019-04-03T19:48:37.905Z,37.83
2019-04-03T19:50:14.706Z,32.50
2019-04-03T19:51:50.781Z,27.90
2019-04-03T19:53:27.361Z,39.00
2019-04-03T19:55:04.435Z,34.80
2019-04-03T19:56:41.878Z,26.23
2019-04-03T19:58:18.271Z,34.17
2019-04-03T19:59:55.977Z,39.67
2019-04-03T20:01:32.209Z,41.90
2019-04-03T20:03:08.658Z,29.57
2019-04-03T20:04:45.888Z,34.47
2019-04-03T20:06:23.267Z,34.73
2019-04-03T20:07:59.589Z,31.33
2019-04-03T20:09:35.796Z,32.13
2019-04-03T20:11:12.040Z,29.40
2019-04-03T20:12:48.558Z,23.97
2019-04-03T20:14:25.817Z,39.53
2019-04-03T20:16:01.938Z,44.13
2019-04-03T20:17:38.357Z,34.40
2019-04-03T20:19:14.636Z,35.60
2019-04-03T20:20:50.944Z,34.63
2019-04-03T20:22:27.272Z,43.07
2019-04-03T20:24:03.596Z,24.57
2019-04-03T20:25:40.005Z,31.60
2019-04-03T20:27:17.442Z,23.33
2019-04-03T20:28:56.781Z,31.17
2019-04-03T20:30:32.911Z,33.53
2019-04-03T20:32:09.773Z,37.27
2019-04-03T20:33:46.270Z,41.47
2019-04-03T20:35:22.532Z,37.73
2019-04-03T20:36:58.691Z,28.30
2019-04-03T20:38:35.072Z,33.67
2019-04-03T20:40:12.771Z,35.67
2019-04-03T20:41:48.995Z,36.63
2019-04-03T20:43:25.214Z,37.83
2019-04-03T20:45:01.622Z,32.17
2019-04-03T20:46:37.960Z,35.63
2019-04-03T20:48:14.207Z,35.17
2019-04-03T20:49:50.605Z,37.07